Have a Safe July 4th! 

Flight Track Log - Related Links

Times and Time Zones

All times are in EDT time to prevent confusion due to time zone crossing. See the N885WT flight status page for this flight to view local times or setup timezone preferences in your user account.

Time Position Orientation Groundspeed Altitude Reporting Facility
EDT Latitude Longitude Course Direction KTS MPH feet Rate Location/Type
Sun 09:42:02 AM 61.1811 -150.0042 345° North 138 159 300  Level FlightAware ADS-B
Sun 09:42:23 AM 61.1964 -150.0121 348° North 170 196 900 2,049 Climbing FlightAware ADS-B
Sun 09:42:43 AM 61.2113 -150.0235 321° Northwest 183 211 1,700 2,250 Climbing FlightAware ADS-B
Sun 09:43:03 AM 61.2228 -150.0481 309° West 195 224 2,400 2,400 Climbing FlightAware ADS-B
Sun 09:43:13 AM 61.2284 -150.0667 293° West 196 226 2,900 2,600 Climbing FlightAware ADS-B
Sun 09:43:33 AM 61.2341 -150.1015 291° West 206 237 3,700 1,895 Climbing FlightAware ADS-B
Sun 09:43:51 AM 61.2406 -150.1380 290° West 235 270 4,100 1,500 Climbing FlightAware ADS-B (PAEN / ENA)
Sun 09:44:13 AM 61.2492 -150.1875 290° West 259 298 4,700 2,049 Climbing FlightAware ADS-B
Sun 09:44:32 AM 61.2572 -150.2315 291° West 273 314 5,500 2,368 Climbing FlightAware ADS-B
Sun 09:44:51 AM 61.2663 -150.2777 294° West 283 326 6,200 2,824 Climbing FlightAware ADS-B (PAEN / ENA)
Sun 09:45:06 AM 61.2766 -150.3158 307° West 282 325 7,100 3,375 Climbing FlightAware ADS-B (PAEN / ENA)
Sun 09:45:23 AM 61.2901 -150.3482 314° West 284 327 8,000 3,103 Climbing FlightAware ADS-B
Sun 09:45:35 AM 61.3033 -150.3733 321° Northwest 288 331 8,600 2,786 Climbing FlightAware ADS-B (PAEN / ENA)
Sun 09:45:51 AM 61.3170 -150.3954 320° Northwest 289 333 9,300 2,889 Climbing FlightAware ADS-B (PAEN / ENA)
Sun 09:46:02 AM 61.3296 -150.4223 309° West 287 330 9,900 2,143 Climbing FlightAware ADS-B
Sun 09:46:33 AM 61.3547 -150.4913 306° West 308 354 10,800 1,313 Climbing FlightAware ADS-B
Sun 09:47:06 AM 61.3837 -150.5744 306° West 343 395 11,300 1,714 Climbing FlightAware ADS-B (PAEN / ENA)
Sun 09:47:43 AM 61.4185 -150.6747 306° West 346 398 12,800 2,270 Climbing FlightAware ADS-B
Sun 09:48:20 AM 61.4535 -150.7767 306° West 353 406 14,100 2,239 Climbing FlightAware ADS-B (PAEN / ENA)
Sun 09:48:50 AM 61.4813 -150.8575 306° West 353 406 15,300 2,262 Climbing FlightAware ADS-B (PAEN / ENA)
Sun 09:49:21 AM 61.5111 -150.9446 306° West 356 410 16,400 2,066 Climbing FlightAware ADS-B (PAEN / ENA)
Sun 09:49:51 AM 61.5395 -151.0278 305° West 362 417 17,400 1,935 Climbing FlightAware ADS-B (PAEN / ENA)
Sun 09:50:23 AM 61.5705 -151.1205 305° West 365 420 18,400 1,935 Climbing FlightAware ADS-B
Sun 09:50:53 AM 61.5998 -151.2077 305° West 368 423 19,400 2,400 Climbing FlightAware ADS-B
Sun 09:51:23 AM 61.6291 -151.2941 305° West 361 415 20,800 2,522 Climbing FlightAware ADS-B
Sun 09:52:02 AM 61.6668 -151.4060 305° West 365 420 22,300 1,971 Climbing FlightAware ADS-B
Sun 09:52:33 AM 61.6967 -151.4966 305° West 373 429 23,100 1,672 Climbing FlightAware ADS-B
Sun 09:53:03 AM 61.7275 -151.5885 305° West 379 436 24,000 1,770 Climbing FlightAware ADS-B
Sun 09:53:34 AM 61.7578 -151.6796 305° West 384 442 24,900 2,557 Climbing FlightAware ADS-B
Sun 09:54:04 AM 61.7873 -151.7688 305° West 369 425 26,600 2,600 Climbing FlightAware ADS-B
Sun 09:54:34 AM 61.8162 -151.8580 305° West 371 427 27,500 1,500 Climbing FlightAware ADS-B
Sun 09:55:04 AM 61.8465 -151.9502 305° West 382 440 28,100 968 Climbing FlightAware ADS-B
Sun 09:55:36 AM 61.8784 -152.0475 305° West 395 455 28,500 943 Climbing FlightAware ADS-B (PAEN / ENA)
Sun 09:56:14 AM 61.9185 -152.1724 304° West 404 465 29,200 1,200 Climbing FlightAware ADS-B
Sun 09:56:51 AM 61.9579 -152.2939 305° West 411 473 30,000 943 Climbing FlightAware ADS-B (PAEN / ENA)
Sun 09:57:24 AM 61.9937 -152.4051 304° West 422 486 30,300 822 Climbing FlightAware ADS-B
Sun 09:58:04 AM 62.0377 -152.5441 304° West 431 496 31,000 1,014 Climbing FlightAware ADS-B
Sun 09:58:35 AM 62.0722 -152.6529 304° West 438 504 31,500 1,548 Climbing FlightAware ADS-B (PAEN / ENA)
Sun 09:59:06 AM 62.1073 -152.7632 304° West 430 495 32,600 1,770 Climbing FlightAware ADS-B (PAEN / ENA)
Sun 09:59:36 AM 62.1405 -152.8694 304° West 430 495 33,300 1,300 Climbing FlightAware ADS-B (PAEN / ENA)
Sun 10:00:06 AM 62.1732 -152.9745 304° West 435 501 33,900 1,100 Climbing FlightAware ADS-B (PAEN / ENA)
Sun 10:00:36 AM 62.2080 -153.0858 304° West 442 509 34,400 900 Climbing FlightAware ADS-B (PAEN / ENA)
Sun 10:01:06 AM 62.2414 -153.1923 304° West 447 514 34,800 800 Climbing FlightAware ADS-B (PAEN / ENA)
Sun 10:01:36 AM 62.2760 -153.3042 303° West 452 520 35,200 882 Climbing FlightAware ADS-B (PAEN / ENA)
Sun 10:02:14 AM 62.3173 -153.4388 303° West 456 525 35,800 960 Climbing FlightAware ADS-B
Sun 10:02:51 AM 62.3625 -153.5869 303° West 451 519 36,400 857 Climbing FlightAware ADS-B (PAEN / ENA)
Sun 10:03:24 AM 62.3986 -153.7065 301° West 449 517 36,800 857 Climbing FlightAware ADS-B
Sun 10:03:54 AM 62.4277 -153.8305 294° West 445 512 37,300 1,000 Climbing FlightAware ADS-B
Sun 10:04:06 AM 62.4362 -153.8755 291° West 446 513 37,500 824 Climbing FlightAware ADS-B (PAEN / ENA)
Sun 10:04:45 AM 62.4663 -154.0342 292° West 449 517 38,000 400 Climbing FlightAware ADS-B
Sun 10:05:21 AM 62.4951 -154.1899 292° West 462 532 38,000  Level FlightAware ADS-B (PAEN / ENA)
Sun 10:05:55 AM 62.5219 -154.3355 292° West 473 544 38,000  Level FlightAware ADS-B
Sun 10:06:35 AM 62.5540 -154.5122 291° West 481 554 38,000  Level FlightAware ADS-B
Sun 10:07:05 AM 62.5786 -154.6495 291° West 483 556 38,000  Level FlightAware ADS-B
Sun 10:07:35 AM 62.6021 -154.7812 291° West 484 557 38,000  Level FlightAware ADS-B
Sun 10:08:05 AM 62.6261 -154.9167 291° West 484 557 38,000  Level FlightAware ADS-B
Sun 10:08:36 AM 62.6514 -155.0606 291° West 484 557 38,000  Level FlightAware ADS-B (PAEN / ENA)
Sun 10:09:06 AM 62.6751 -155.1965 291° West 483 556 38,000  Level FlightAware ADS-B (PAEN / ENA)
Sun 10:09:45 AM 62.7061 -155.3764 290° West 484 557 38,000  Level FlightAware ADS-B
Sun 10:10:16 AM 62.7154 -155.4311 290° West 486 559 38,000  Level FlightAware ADS-B (PAEN / ENA)
Sun 10:10:46 AM 62.7533 -155.6537 290° West 488 562 38,000  Level FlightAware ADS-B
Sun 10:11:36 AM 62.7667 -155.8167 290° West 480 552 38,000  Level Anchorage Center
Sun 10:12:36 AM 62.8167 -156.1000 291° West 480 552 38,000  Level Anchorage Center
Sun 10:13:37 AM 62.8667 -156.3833 291° West 480 552 38,000  Level Anchorage Center
Sun 10:14:37 AM 62.9167 -156.6667 291° West 470 541 38,000  Level Anchorage Center
Sun 10:15:37 AM 62.9500 -156.9500 285° West 490 564 38,000  Level Anchorage Center
Sun 10:16:38 AM 63.0000 -157.2333 291° West 480 552 38,000  Level Anchorage Center
Sun 10:17:38 AM 63.0500 -157.5000 293° West 480 552 38,000  Level Anchorage Center
Sun 10:18:38 AM 63.0833 -157.7833 285° West 480 552 38,000  Level Anchorage Center
Sun 10:19:39 AM 63.1333 -158.0667 291° West 460 529 38,000  Level Anchorage Center
Sun 10:20:39 AM 63.1667 -158.3333 286° West 470 541 38,000  Level Anchorage Center
Sun 10:21:40 AM 63.2167 -158.6167 291° West 470 541 38,000 372 Level Anchorage Center
Sun 10:24:41 AM 63.3333 -159.4500 290° West 470 541 39,500 498 Climbing Anchorage Center
Sun 10:25:41 AM 63.3667 -159.7333 285° West 470 541 40,000 250 Climbing Anchorage Center
Sun 10:26:41 AM 63.4000 -160.0167 285° West 470 541 40,000  Level Anchorage Center
Sun 10:27:42 AM 63.4500 -160.3000 292° West 470 541 40,000  Level Anchorage Center
Sun 10:28:42 AM 63.4833 -160.5833 285° West 470 541 40,000  Level Anchorage Center
Sun 10:29:42 AM 63.5167 -160.8667 285° West 470 541 40,000  Level Anchorage Center
Sun 10:30:43 AM 63.5500 -161.1500 285° West 470 541 40,000  Level Anchorage Center
Sun 10:31:43 AM 63.5833 -161.4333 285° West 470 541 40,000  Level Anchorage Center
Sun 10:32:44 AM 63.6167 -161.7333 284° West 470 541 40,000  Level Anchorage Center
Sun 10:33:44 AM 63.6500 -162.0500 283° West 460 529 40,000  Level Anchorage Center
Sun 10:34:44 AM 63.6833 -162.3333 285° West 470 541 40,000  Level Anchorage Center
Sun 10:35:45 AM 63.7167 -162.6167 285° West 470 541 40,000  Level Anchorage Center
Sun 10:36:45 AM 63.7500 -162.9000 285° West 470 541 40,000  Level Anchorage Center
Sun 10:37:45 AM 63.7833 -163.2000 284° West 470 541 40,000  Level Anchorage Center
Sun 10:38:46 AM 63.8167 -163.4833 285° West 460 529 40,000  Level Anchorage Center
Sun 10:39:46 AM 63.8500 -163.7667 285° West 470 541 40,000  Level Anchorage Center
Sun 10:40:46 AM 63.8667 -164.0667 277° West 470 541 40,000  Level Anchorage Center
Sun 10:41:47 AM 63.9000 -164.3500 285° West 470 541 40,000  Level Anchorage Center
Sun 10:42:47 AM 63.9333 -164.6333 285° West 460 529 40,000  Level Anchorage Center
Sun 10:43:47 AM 63.9667 -164.9500 284° West 480 552 40,000  Level Anchorage Center
Sun 10:44:48 AM 63.9833 -165.2333 278° West 470 541 40,000  Level Anchorage Center
Sun 10:45:48 AM 64.0167 -165.5167 285° West 470 541 40,000  Level Anchorage Center
Sun 10:46:48 AM 64.0333 -165.8167 277° West 470 541 40,000  Level Anchorage Center
Sun 10:47:48 AM 64.0667 -166.1000 285° West 470 541 40,000  Level Anchorage Center
Sun 10:48:49 AM 64.0833 -166.4000 277° West 470 541 40,000  Level Anchorage Center
Sun 10:49:49 AM 64.1167 -166.7000 284° West 470 541 40,000  Level Anchorage Center
Sun 10:50:49 AM 64.1333 -167.0000 277° West 470 541 40,000  Level Anchorage Center
Sun 10:51:50 AM 64.1500 -167.3000 277° West 470 541 40,000  Level Anchorage Center
Sun 10:52:50 AM 64.1833 -167.6167 284° West 480 552 40,000  Level Anchorage Center
Sun 10:53:50 AM 64.2000 -167.9000 278° West 470 541 40,000  Level Anchorage Center
Sun 10:54:51 AM 64.2167 -168.2000 277° West 470 541 40,000  Level Anchorage Center
Sun 10:55:51 AM 64.2333 -168.5167 277° West 480 552 40,000  Level Anchorage Center
Sun 10:56:51 AM 64.2667 -168.8167 284° West 480 552 40,000  Level Anchorage Center
Sun 10:57:52 AM 64.2833 -169.1833 276° West 480 552 40,000  Level Anchorage Center
Sun 10:58:52 AM 64.3000 -169.4333 279° West 480 552 40,000  Level Anchorage Center
Sun 10:59:53 AM 64.3167 -169.8167 276° West 490 564 40,000  Level Anchorage Center
Sun 11:00:53 AM 64.3333 -170.1167 277° West 470 541 40,000  Level Anchorage Center
Sun 11:01:53 AM 64.3500 -170.4167 277° West 480 552 40,000  Level Anchorage Center
Sun 11:02:54 AM 64.3667 -170.7333 277° West 480 552 40,000  Level Anchorage Center
Sun 11:03:54 AM 64.3833 -171.0333 277° West 480 552 40,000  Level Anchorage Center
Sun 11:04:54 AM 64.3833 -171.3333 270° West 490 564 40,000  Level Anchorage Center
Sun 11:05:55 AM 64.3667 -171.6500 263° West 480 552 40,000  Level Anchorage Center
Sun 11:07:00 AM 64.3578 -171.9677 266° West  Level FlightAware Approximate
Sun 11:14:00 AM 64.2843 -174.0146 266° West  Level FlightAware Approximate
Sun 11:15:00 AM 64.2715 -174.3060 264° West  Level FlightAware Approximate
Sun 11:16:00 AM 64.2581 -174.5972 264° West  Level FlightAware Approximate
Sun 11:17:00 AM 64.2441 -174.8881 264° West  Level FlightAware Approximate
Sun 11:18:00 AM 64.2295 -175.1787 264° West  Level FlightAware Approximate
Sun 11:19:00 AM 64.2144 -175.4689 263° West  Level FlightAware Approximate
Sun 11:20:00 AM 64.1986 -175.7589 263° West  Level FlightAware Approximate
Sun 11:21:00 AM 64.1824 -176.0485 263° West  Level FlightAware Approximate
Sun 11:22:00 AM 64.1655 -176.3378 263° West  Level FlightAware Approximate
Sun 11:23:00 AM 64.1480 -176.6267 262° West  Level FlightAware Approximate
Sun 11:24:00 AM 64.1300 -176.9152 262° West  Level FlightAware Approximate
Sun 11:25:00 AM 64.1115 -177.2034 262° West  Level FlightAware Approximate
Sun 11:26:00 AM 64.0923 -177.4911 261° West  Level FlightAware Approximate
Sun 11:27:00 AM 64.0726 -177.7785 261° West  Level FlightAware Approximate
Sun 11:28:00 AM 64.0523 -178.0655 261° West  Level FlightAware Approximate
Sun 11:29:00 AM 64.0315 -178.3520 261° West  Level FlightAware Approximate
Sun 11:30:00 AM 64.0100 -178.6381 260° West  Level FlightAware Approximate
Sun 11:31:00 AM 63.9881 -178.9238 260° West  Level FlightAware Approximate
Sun 11:32:00 AM 63.9655 -179.2090 260° West  Level FlightAware Approximate
Sun 11:33:00 AM 63.9425 -179.4937 260° West  Level FlightAware Approximate
Sun 11:34:00 AM 63.9188 -179.7780 259° West  Level FlightAware Approximate
Sun 11:35:00 AM 63.8946 179.9383 259° West  Level FlightAware Approximate
Sun 11:36:00 AM 63.8699 179.6550 259° West  Level FlightAware Approximate
Sun 11:37:00 AM 63.8445 179.3722 259° West  Level FlightAware Approximate
Sun 11:38:00 AM 63.8187 179.0899 258° West  Level FlightAware Approximate
Sun 11:39:00 AM 63.7923 178.8082 258° West  Level FlightAware Approximate
Sun 11:40:00 AM 63.7653 178.5270 258° West  Level FlightAware Approximate
Sun 11:41:00 AM 63.7378 178.2463 258° West  Level FlightAware Approximate
Sun 11:42:00 AM 63.7098 177.9662 257° West  Level FlightAware Approximate
Sun 11:43:00 AM 63.6812 177.6866 257° West  Level FlightAware Approximate
Sun 11:44:00 AM 63.6520 177.4077 257° West  Level FlightAware Approximate
Sun 11:45:00 AM 63.6223 177.1292 257° West  Level FlightAware Approximate
Sun 11:46:00 AM 63.5921 176.8514 256° West  Level FlightAware Approximate
Sun 11:47:00 AM 63.5614 176.5742 256° West  Level FlightAware Approximate
Sun 11:48:00 AM 63.5301 176.2976 256° West  Level FlightAware Approximate
Sun 11:49:00 AM 63.4983 176.0215 256° West  Level FlightAware Approximate
Sun 11:50:00 AM 63.4660 175.7462 255° West  Level FlightAware Approximate
Sun 11:51:00 AM 63.4331 175.4714 255° West  Level FlightAware Approximate
Sun 11:52:00 AM 63.3997 175.1973 255° West  Level FlightAware Approximate
Sun 11:53:00 AM 63.3658 174.9238 255° West  Level FlightAware Approximate
Sun 11:54:00 AM 63.3313 174.6509 254° West  Level FlightAware Approximate
Sun 11:55:00 AM 63.2964 174.3787 254° West  Level FlightAware Approximate
Sun 11:56:00 AM 63.2609 174.1072 254° West  Level FlightAware Approximate
Sun 11:57:00 AM 63.2249 173.8364 254° West  Level FlightAware Approximate
Sun 11:58:00 AM 63.1884 173.5662 253° West  Level FlightAware Approximate
Sun 11:59:00 AM 63.1514 173.2967 253° West  Level FlightAware Approximate
Sun 12:00:00 PM 63.1138 173.0279 253° West  Level FlightAware Approximate
Sun 12:01:00 PM 63.0758 172.7598 253° West  Level FlightAware Approximate
Sun 12:02:00 PM 63.0373 172.4924 252° West  Level FlightAware Approximate
Sun 12:03:00 PM 62.9982 172.2257 252° West  Level FlightAware Approximate
Sun 12:04:00 PM 62.9587 171.9598 252° West  Level FlightAware Approximate
Sun 12:05:00 PM 62.9186 171.6945 252° West  Level FlightAware Approximate
Sun 12:06:00 PM 62.8781 171.4300 252° West  Level FlightAware Approximate
Sun 12:07:00 PM 62.8371 171.1662 251° West  Level FlightAware Approximate
Sun 12:08:00 PM 62.7955 170.9032 251° West  Level FlightAware Approximate
Sun 12:09:00 PM 62.7535 170.6409 251° West  Level FlightAware Approximate
Sun 12:10:00 PM 62.7110 170.3794 251° West  Level FlightAware Approximate
Sun 12:11:00 PM 62.6680 170.1186 250° West  Level FlightAware Approximate
Sun 12:12:00 PM 62.6246 169.8586 250° West  Level FlightAware Approximate
Sun 12:13:00 PM 62.5806 169.5993 250° West  Level FlightAware Approximate
Sun 12:14:00 PM 62.5362 169.3408 250° West  Level FlightAware Approximate
Sun 12:15:00 PM 62.4913 169.0831 249° West  Level FlightAware Approximate
Sun 12:16:00 PM 62.4459 168.8261 249° West  Level FlightAware Approximate
Sun 12:17:00 PM 62.4001 168.5700 249° West  Level FlightAware Approximate
Sun 12:18:00 PM 62.3537 168.3146 249° West  Level FlightAware Approximate
Sun 12:19:00 PM 62.3069 168.0600 249° West  Level FlightAware Approximate
Sun 12:20:00 PM 62.2597 167.8062 248° West  Level FlightAware Approximate
Sun 12:21:00 PM 62.2120 167.5533 248° West  Level FlightAware Approximate
Sun 12:22:00 PM 62.1638 167.3011 248° West  Level FlightAware Approximate
Sun 12:23:00 PM 62.1152 167.0497 248° West  Level FlightAware Approximate
Sun 12:24:00 PM 62.0661 166.7991 247° West  Level FlightAware Approximate
Sun 12:25:00 PM 62.0166 166.5494 247° West  Level FlightAware Approximate
Sun 12:26:00 PM 61.9666 166.3004 247° West  Level FlightAware Approximate
Sun 12:27:00 PM 61.9162 166.0523 247° West  Level FlightAware Approximate
Sun 12:28:00 PM 61.8653 165.8050 247° West  Level FlightAware Approximate
Sun 12:29:00 PM 61.8140 165.5585 246° West  Level FlightAware Approximate
Sun 12:30:00 PM 61.7622 165.3129 246° West  Level FlightAware Approximate
Sun 12:31:00 PM 61.7100 165.0681 246° West  Level FlightAware Approximate
Sun 12:32:00 PM 61.6574 164.8241 246° West  Level FlightAware Approximate
Sun 12:33:00 PM 61.6043 164.5809 245° Southwest  Level FlightAware Approximate
Sun 12:34:00 PM 61.5508 164.3386 245° Southwest  Level FlightAware Approximate
Sun 12:35:00 PM 61.4969 164.0971 245° Southwest  Level FlightAware Approximate
Sun 12:36:00 PM 61.4426 163.8564 245° Southwest  Level FlightAware Approximate
Sun 12:37:00 PM 61.3878 163.6166 245° Southwest  Level FlightAware Approximate
Sun 12:38:00 PM 61.3326 163.3777 244° Southwest  Level FlightAware Approximate
Sun 12:39:00 PM 61.2770 163.1395 244° Southwest  Level FlightAware Approximate
Sun 12:40:00 PM 61.2210 162.9023 244° Southwest  Level FlightAware Approximate
Sun 12:41:00 PM 61.1646 162.6658 244° Southwest  Level FlightAware Approximate
Sun 12:42:00 PM 61.1077 162.4302 244° Southwest  Level FlightAware Approximate
Sun 12:43:00 PM 61.0504 162.1955 243° Southwest  Level FlightAware Approximate
Sun 12:44:00 PM 60.9928 161.9616 243° Southwest  Level FlightAware Approximate
Sun 12:45:00 PM 60.9347 161.7286 243° Southwest  Level FlightAware Approximate
Sun 12:46:00 PM 60.8763 161.4964 243° Southwest  Level FlightAware Approximate
Sun 12:47:00 PM 60.8174 161.2651 243° Southwest  Level FlightAware Approximate
Sun 12:48:00 PM 60.7581 161.0346 242° Southwest  Level FlightAware Approximate
Sun 12:49:00 PM 60.6985 160.8049 242° Southwest  Level FlightAware Approximate
Sun 12:50:00 PM 60.6384 160.5762 242° Southwest  Level FlightAware Approximate
Sun 12:51:00 PM 60.5780 160.3483 242° Southwest  Level FlightAware Approximate
Sun 12:52:00 PM 60.5172 160.1212 242° Southwest  Level FlightAware Approximate
Sun 12:53:00 PM 60.4560 159.8950 241° Southwest  Level FlightAware Approximate
Sun 12:54:00 PM 60.3944 159.6696 241° Southwest  Level FlightAware Approximate
Sun 12:55:00 PM 60.3324 159.4451 241° Southwest  Level FlightAware Approximate
Sun 12:56:00 PM 60.2701 159.2215 241° Southwest  Level FlightAware Approximate
Sun 12:57:00 PM 60.2074 158.9987 241° Southwest  Level FlightAware Approximate
Sun 12:58:00 PM 60.1443 158.7767 240° Southwest  Level FlightAware Approximate
Sun 12:59:00 PM 60.0808 158.5556 240° Southwest  Level FlightAware Approximate
Sun 01:00:00 PM 60.0170 158.3354 240° Southwest  Level FlightAware Approximate
Sun 01:01:00 PM 59.9528 158.1160 240° Southwest  Level FlightAware Approximate
Sun 01:02:00 PM 59.8883 157.8974 240° Southwest  Level FlightAware Approximate
Sun 01:03:00 PM 59.8233 157.6797 239° Southwest  Level FlightAware Approximate
Sun 01:04:00 PM 59.7581 157.4629 239° Southwest  Level FlightAware Approximate
Sun 01:05:00 PM 59.6924 157.2469 239° Southwest  Level FlightAware Approximate
Sun 01:06:00 PM 59.6265 157.0318 239° Southwest  Level FlightAware Approximate
Sun 01:07:00 PM 59.5597 156.8181 238° Southwest  Level FlightAware Approximate
Sun 01:08:00 PM 59.4925 156.6053 238° Southwest  Level FlightAware Approximate
Sun 01:09:00 PM 59.4249 156.3933 238° Southwest  Level FlightAware Approximate
Sun 01:10:00 PM 59.3570 156.1822 238° Southwest  Level FlightAware Approximate
Sun 01:11:00 PM 59.2888 155.9720 238° Southwest  Level FlightAware Approximate
Sun 01:12:00 PM 59.2202 155.7625 237° Southwest  Level FlightAware Approximate
Sun 01:13:00 PM 59.1513 155.5540 237° Southwest  Level FlightAware Approximate
Sun 01:14:00 PM 59.0821 155.3461 237° Southwest  Level FlightAware Approximate
Sun 01:15:00 PM 59.0130 155.1386 237° Southwest  Level FlightAware Approximate
Sun 01:16:00 PM 58.9436 154.9320 237° Southwest  Level FlightAware Approximate
Sun 01:17:00 PM 58.8738 154.7262 237° Southwest  Level FlightAware Approximate
Sun 01:17:35 PM 60.2916 150.8433 235° Southwest 481 554 40,000  Level FlightAware ADS-B
Sun 01:18:18 PM 60.2375 150.6893 235° Southwest 480 552 40,000  Level FlightAware ADS-B
Sun 01:18:58 PM 60.1868 150.5461 234° Southwest 479 551 40,000  Level FlightAware ADS-B
Sun 01:19:38 PM 60.1345 150.3993 234° Southwest 478 550 40,000  Level FlightAware ADS-B
Sun 01:20:16 PM 60.0860 150.2636 234° Southwest 478 550 40,000  Level FlightAware ADS-B
Sun 01:20:58 PM 60.0365 150.1260 234° Southwest 483 556 40,000  Level FlightAware ADS-B
Sun 01:23:00 PM 59.8712 149.7291 230° Southwest  Level Estimated
Sun 01:24:00 PM 59.7894 149.5354 230° Southwest  Level Estimated
Sun 01:25:00 PM 59.7074 149.3426 230° Southwest  Level Estimated
Sun 01:26:00 PM 59.6250 149.1508 230° Southwest  Level Estimated
Sun 01:27:00 PM 59.5424 148.9599 230° Southwest  Level Estimated
Sun 01:28:00 PM 59.4595 148.7699 229° Southwest  Level Estimated
Sun 01:29:00 PM 59.3764 148.5808 229° Southwest  Level Estimated
Sun 01:30:00 PM 59.2930 148.3927 229° Southwest  Level Estimated
Sun 01:31:00 PM 59.2093 148.2055 229° Southwest  Level Estimated
Sun 01:32:00 PM 59.1253 148.0193 229° Southwest  Level Estimated
Sun 01:33:00 PM 59.0411 147.8339 229° Southwest  Level Estimated
Sun 01:34:00 PM 58.9566 147.6494 228° Southwest  Level Estimated
Sun 01:35:00 PM 58.8718 147.4659 228° Southwest  Level Estimated
Sun 01:36:00 PM 58.7868 147.2832 228° Southwest  Level Estimated
Sun 01:37:00 PM 58.7016 147.1015 228° Southwest  Level Estimated
Sun 01:38:00 PM 58.6161 146.9206 228° Southwest  Level Estimated
Sun 01:39:00 PM 58.5303 146.7406 228° Southwest  Level Estimated
Sun 01:40:00 PM 58.4442 146.5615 227° Southwest  Level Estimated
Sun 01:41:00 PM 58.3580 146.3833 227° Southwest  Level Estimated
Sun 01:42:00 PM 58.2715 146.2059 227° Southwest  Level Estimated
Sun 01:43:00 PM 58.1847 146.0294 227° Southwest  Level Estimated
Sun 01:44:00 PM 58.0977 145.8538 227° Southwest  Level Estimated
Sun 01:45:00 PM 58.0104 145.6790 227° Southwest  Level Estimated
Sun 01:46:00 PM 57.9230 145.5051 227° Southwest  Level Estimated
Sun 01:47:00 PM 57.8352 145.3320 226° Southwest  Level Estimated
Sun 01:48:00 PM 57.7473 145.1597 226° Southwest  Level Estimated
Sun 01:49:00 PM 57.6591 144.9883 226° Southwest  Level Estimated
Sun 01:50:00 PM 57.5707 144.8177 226° Southwest  Level Estimated
Sun 01:51:00 PM 57.4820 144.6480 226° Southwest  Level Estimated
Sun 01:52:00 PM 57.3931 144.4791 226° Southwest  Level Estimated
Sun 01:53:00 PM 57.3040 144.3110 226° Southwest  Level Estimated
Sun 01:54:00 PM 57.2147 144.1437 225° Southwest  Level Estimated
Sun 01:55:00 PM 57.1252 143.9772 225° Southwest  Level Estimated
Sun 01:56:00 PM 57.0354 143.8115 225° Southwest  Level Estimated
Sun 01:57:00 PM 56.9454 143.6467 225° Southwest  Level Estimated
Sun 01:58:00 PM 56.8552 143.4826 225° Southwest  Level Estimated
Sun 01:59:00 PM 56.7648 143.3193 225° Southwest  Level Estimated
Sun 02:00:00 PM 56.6742 143.1568 225° Southwest  Level Estimated
Sun 02:01:00 PM 56.5834 142.9951 224° Southwest  Level Estimated
Sun 02:02:00 PM 56.4923 142.8341 224° Southwest  Level Estimated
Sun 02:03:00 PM 56.4011 142.6739 224° Southwest  Level Estimated
Sun 02:04:00 PM 56.3096 142.5145 224° Southwest  Level Estimated
Sun 02:05:00 PM 56.2179 142.3559 224° Southwest  Level Estimated
Sun 02:06:00 PM 56.1261 142.1980 224° Southwest  Level Estimated
Sun 02:07:00 PM 56.0340 142.0408 224° Southwest  Level Estimated
Sun 02:08:00 PM 55.9418 141.8844 224° Southwest  Level Estimated
Sun 02:09:00 PM 55.8493 141.7288 223° Southwest  Level Estimated
Sun 02:10:00 PM 55.7566 141.5739 223° Southwest  Level Estimated
Sun 02:11:00 PM 55.6638 141.4197 223° Southwest  Level Estimated
Sun 02:12:00 PM 55.5708 141.2663 223° Southwest  Level Estimated
Sun 02:13:00 PM 55.4775 141.1136 223° Southwest  Level Estimated
Sun 02:14:00 PM 55.3841 140.9616 223° Southwest  Level Estimated
Sun 02:15:00 PM 55.2905 140.8103 223° Southwest  Level Estimated
Sun 02:16:00 PM 55.1967 140.6597 223° Southwest  Level Estimated
Sun 02:17:00 PM 55.1027 140.5099 222° Southwest  Level Estimated
Sun 02:18:00 PM 55.0086 140.3607 222° Southwest  Level Estimated
Sun 02:19:00 PM 54.9142 140.2123 222° Southwest  Level Estimated
Sun 02:20:00 PM 54.8197 140.0645 222° Southwest  Level Estimated
Sun 02:21:00 PM 54.7250 139.9175 222° Southwest  Level Estimated
Sun 02:22:00 PM 54.6301 139.7711 222° Southwest  Level Estimated
Sun 02:23:00 PM 54.5351 139.6254 222° Southwest  Level Estimated
Sun 02:24:00 PM 54.4398 139.4804 222° Southwest  Level Estimated
Sun 02:25:00 PM 54.3444 139.3360 221° Southwest  Level Estimated
Sun 02:26:00 PM 54.2489 139.1924 221° Southwest  Level Estimated
Sun 02:27:00 PM 54.1531 139.0493 221° Southwest  Level Estimated
Sun 02:28:00 PM 54.0572 138.9070 221° Southwest  Level Estimated
Sun 02:29:00 PM 53.9611 138.7653 221° Southwest  Level Estimated
Sun 02:30:00 PM 53.8649 138.6243 221° Southwest  Level Estimated
Sun 02:31:00 PM 53.7685 138.4839 221° Southwest  Level Estimated
Sun 02:32:00 PM 53.6719 138.3441 221° Southwest  Level Estimated
Sun 02:33:00 PM 53.5752 138.2050 221° Southwest  Level Estimated
Sun 02:34:00 PM 53.4783 138.0665 220° Southwest  Level Estimated
Sun 02:35:00 PM 53.3812 137.9287 220° Southwest  Level Estimated
Sun 02:36:00 PM 53.2840 137.7915 220° Southwest  Level Estimated
Sun 02:37:00 PM 53.1866 137.6549 220° Southwest  Level Estimated
Sun 02:38:00 PM 53.0891 137.5189 220° Southwest  Level Estimated
Sun 02:39:00 PM 52.9914 137.3835 220° Southwest  Level Estimated
Sun 02:40:00 PM 52.8936 137.2488 220° Southwest  Level Estimated
Sun 02:41:00 PM 52.7956 137.1147 220° Southwest  Level Estimated
Sun 02:42:00 PM 52.6975 136.9811 220° Southwest  Level Estimated
Sun 02:43:00 PM 52.5992 136.8482 219° Southwest  Level Estimated
Sun 02:44:00 PM 52.5008 136.7158 219° Southwest  Level Estimated
Sun 02:45:00 PM 52.4022 136.5841 219° Southwest  Level Estimated
Sun 02:46:00 PM 52.3035 136.4529 219° Southwest  Level Estimated
Sun 02:47:00 PM 52.2046 136.3224 219° Southwest  Level Estimated
Sun 02:48:00 PM 52.1056 136.1924 219° Southwest  Level Estimated
Sun 02:49:00 PM 52.0064 136.0629 219° Southwest  Level Estimated
Sun 02:50:00 PM 51.9071 135.9341 219° Southwest  Level Estimated
Sun 02:51:00 PM 51.8077 135.8058 219° Southwest  Level Estimated
Sun 02:52:00 PM 51.7081 135.6781 218° Southwest  Level Estimated
Sun 02:53:00 PM 51.6084 135.5509 218° Southwest  Level Estimated
Sun 02:54:00 PM 51.5086 135.4243 218° Southwest  Level Estimated
Sun 02:55:00 PM 51.4086 135.2983 218° Southwest  Level Estimated
Sun 02:56:00 PM 51.3085 135.1728 218° Southwest  Level Estimated
Sun 02:57:00 PM 51.2082 135.0479 218° Southwest  Level Estimated
Sun 02:58:00 PM 51.1078 134.9235 218° Southwest  Level Estimated
Sun 02:59:00 PM 51.0073 134.7996 218° Southwest  Level Estimated
Sun 03:00:00 PM 50.9067 134.6763 218° Southwest  Level Estimated
Sun 03:01:00 PM 50.8059 134.5535 218° Southwest  Level Estimated
Sun 03:02:00 PM 50.7050 134.4312 218° Southwest  Level Estimated
Sun 03:03:00 PM 50.6039 134.3095 217° Southwest  Level Estimated
Sun 03:04:00 PM 50.5028 134.1883 217° Southwest  Level Estimated
Sun 03:05:00 PM 50.4015 134.0676 217° Southwest  Level Estimated
Sun 03:06:00 PM 50.3001 133.9474 217° Southwest  Level Estimated
Sun 03:07:00 PM 50.1986 133.8277 217° Southwest  Level Estimated
Sun 03:08:00 PM 50.0969 133.7086 217° Southwest  Level Estimated
Sun 03:09:00 PM 49.9951 133.5899 217° Southwest  Level Estimated
Sun 03:10:00 PM 49.8932 133.4717 217° Southwest  Level Estimated
Sun 03:11:00 PM 49.7912 133.3541 217° Southwest  Level Estimated
Sun 03:12:00 PM 49.6891 133.2369 217° Southwest  Level Estimated
Sun 03:13:00 PM 49.5868 133.1202 217° Southwest  Level Estimated
Sun 03:14:00 PM 49.4845 133.0041 216° Southwest  Level Estimated
Sun 03:15:00 PM 49.3820 132.8884 216° Southwest  Level Estimated
Sun 03:16:00 PM 49.2794 132.7731 216° Southwest  Level Estimated
Sun 03:17:00 PM 49.1767 132.6584 216° Southwest  Level Estimated
Sun 03:18:00 PM 49.0738 132.5441 216° Southwest  Level Estimated
Sun 03:19:00 PM 48.9709 132.4303 216° Southwest  Level Estimated
Sun 03:20:00 PM 48.8678 132.3170 216° Southwest  Level Estimated
Sun 03:21:00 PM 48.7647 132.2042 216° Southwest  Level Estimated
Sun 03:22:00 PM 48.6614 132.0918 216° Southwest  Level Estimated
Sun 03:23:00 PM 48.5580 131.9798 216° Southwest  Level Estimated
Sun 03:24:00 PM 48.4545 131.8684 216° Southwest  Level Estimated
Sun 03:25:00 PM 48.3509 131.7574 215° Southwest  Level Estimated
Sun 03:26:00 PM 48.2472 131.6468 215° Southwest  Level Estimated
Sun 03:27:00 PM 48.1434 131.5367 215° Southwest  Level Estimated
Sun 03:28:00 PM 48.0395 131.4270 215° Southwest  Level Estimated
Sun 03:29:00 PM 47.9355 131.3177 215° Southwest  Level Estimated
Sun 03:30:00 PM 47.8314 131.2090 215° Southwest  Level Estimated
Sun 03:31:00 PM 47.7272 131.1006 215° Southwest  Level Estimated
Sun 03:32:00 PM 47.6228 130.9927 215° Southwest  Level Estimated
Sun 03:33:00 PM 47.5184 130.8852 215° Southwest  Level Estimated
Sun 03:34:00 PM 47.4139 130.7781 215° Southwest  Level Estimated
Sun 03:35:00 PM 47.3093 130.6714 215° Southwest  Level Estimated
Sun 03:36:00 PM 47.2046 130.5652 215° Southwest  Level Estimated
Sun 03:37:00 PM 47.0997 130.4594 215° Southwest  Level Estimated
Sun 03:38:00 PM 46.9948 130.3540 214° Southwest  Level Estimated
Sun 03:39:00 PM 46.8898 130.2490 214° Southwest  Level Estimated
Sun 03:40:00 PM 46.7847 130.1445 214° Southwest  Level Estimated
Sun 03:41:00 PM 46.6795 130.0403 214° Southwest  Level Estimated
Sun 03:42:00 PM 46.5742 129.9366 214° Southwest  Level Estimated
Sun 03:43:00 PM 46.4688 129.8332 214° Southwest  Level Estimated
Sun 03:44:00 PM 46.3633 129.7303 214° Southwest  Level Estimated
Sun 03:45:00 PM 46.2577 129.6277 214° Southwest  Level Estimated
Sun 03:46:00 PM 46.1521 129.5255 214° Southwest  Level Estimated
Sun 03:47:00 PM 46.0463 129.4238 214° Southwest  Level Estimated
Sun 03:48:00 PM 45.9405 129.3224 214° Southwest  Level Estimated
Sun 03:49:00 PM 45.8345 129.2214 214° Southwest  Level Estimated
Sun 03:50:00 PM 45.7285 129.1208 214° Southwest  Level Estimated
Sun 03:51:00 PM 45.6224 129.0206 213° Southwest  Level Estimated
Sun 03:52:00 PM 45.5162 128.9207 213° Southwest  Level Estimated
Sun 03:53:00 PM 45.4099 128.8212 213° Southwest  Level Estimated
Sun 03:54:00 PM 45.3035 128.7221 213° Southwest  Level Estimated
Sun 03:55:00 PM 45.1971 128.6234 213° Southwest  Level Estimated
Sun 03:56:00 PM 45.0905 128.5250 213° Southwest  Level Estimated
Sun 03:57:00 PM 44.9839 128.4270 213° Southwest  Level Estimated
Sun 03:58:00 PM 44.8772 128.3294 213° Southwest  Level Estimated
Sun 03:59:00 PM 44.7704 128.2321 213° Southwest  Level Estimated
Sun 04:00:00 PM 44.6635 128.1352 213° Southwest  Level Estimated
Sun 04:01:00 PM 44.5565 128.0387 213° Southwest  Level Estimated
Sun 04:02:00 PM 44.4495 127.9425 213° Southwest  Level Estimated
Sun 04:03:00 PM 44.3424 127.8466 213° Southwest  Level Estimated
Sun 04:04:00 PM 44.2352 127.7512 213° Southwest  Level Estimated
Sun 04:05:00 PM 44.1279 127.6560 212° Southwest  Level Estimated
Sun 04:06:00 PM 44.0206 127.5612 212° Southwest  Level Estimated
Sun 04:07:00 PM 43.9131 127.4668 212° Southwest  Level Estimated
Sun 04:08:00 PM 43.8056 127.3726 212° Southwest  Level Estimated
Sun 04:09:00 PM 43.6980 127.2788 212° Southwest  Level Estimated
Sun 04:10:00 PM 43.5904 127.1854 212° Southwest  Level Estimated
Sun 04:11:00 PM 43.4826 127.0923 212° Southwest  Level Estimated
Sun 04:12:00 PM 43.3748 126.9995 212° Southwest  Level Estimated
Sun 04:13:00 PM 43.2669 126.9071 212° Southwest  Level Estimated
Sun 04:14:00 PM 43.1589 126.8149 212° Southwest  Level Estimated
Sun 04:15:00 PM 43.0509 126.7231 212° Southwest  Level Estimated
Sun 04:16:00 PM 42.9428 126.6317 212° Southwest  Level Estimated
Sun 04:17:00 PM 42.8346 126.5405 212° Southwest  Level Estimated
Sun 04:18:00 PM 42.7263 126.4497 212° Southwest  Level Estimated
Sun 04:19:00 PM 42.6180 126.3592 212° Southwest  Level Estimated
Sun 04:20:00 PM 42.5096 126.2690 212° Southwest  Level Estimated
Sun 04:21:00 PM 42.4011 126.1791 211° Southwest  Level Estimated
Sun 04:22:00 PM 42.2926 126.0895 211° Southwest  Level Estimated
Sun 04:23:00 PM 42.1840 126.0002 211° Southwest  Level Estimated
Sun 04:24:00 PM 42.0753 125.9112 211° Southwest  Level Estimated
Sun 04:25:00 PM 41.9665 125.8226 211° Southwest  Level Estimated
Sun 04:26:00 PM 41.8577 125.7342 211° Southwest  Level Estimated
Sun 04:27:00 PM 41.7489 125.6462 211° Southwest  Level Estimated
Sun 04:28:00 PM 41.6399 125.5584 211° Southwest  Level Estimated
Sun 04:29:00 PM 41.5309 125.4709 211° Southwest  Level Estimated
Sun 04:30:00 PM 41.4218 125.3838 211° Southwest  Level Estimated
Sun 04:31:00 PM 41.3127 125.2969 211° Southwest  Level Estimated
Sun 04:32:00 PM 41.2034 125.2103 211° Southwest  Level Estimated
Sun 04:33:00 PM 41.0942 125.1240 211° Southwest  Level Estimated
Sun 04:34:00 PM 40.9848 125.0380 211° Southwest  Level Estimated
Sun 04:35:00 PM 40.8754 124.9523 211° Southwest  Level Estimated
Sun 04:36:00 PM 40.7659 124.8668 211° Southwest  Level Estimated
Sun 04:37:00 PM 40.6564 124.7816 211° Southwest  Level Estimated
Sun 04:38:00 PM 40.5468 124.6968 210° Southwest  Level Estimated
Sun 04:39:00 PM 40.4372 124.6122 210° Southwest  Level Estimated
Sun 04:40:00 PM 40.3274 124.5278 210° Southwest  Level Estimated
Sun 04:41:00 PM 40.2177 124.4438 210° Southwest  Level Estimated
Sun 04:42:00 PM 40.1078 124.3600 210° Southwest  Level Estimated
Sun 04:43:00 PM 39.9979 124.2765 210° Southwest  Level Estimated
Sun 04:44:00 PM 39.8880 124.1932 210° Southwest  Level Estimated
Sun 04:45:00 PM 39.7780 124.1102 210° Southwest  Level Estimated
Sun 04:46:00 PM 39.6679 124.0275 210° Southwest  Level Estimated
Sun 04:47:00 PM 39.5577 123.9451 210° Southwest  Level Estimated
Sun 04:48:00 PM 39.4475 123.8629 210° Southwest  Level Estimated
Sun 04:49:00 PM 39.3373 123.7810 210° Southwest  Level Estimated
Sun 04:50:00 PM 39.2270 123.6993 210° Southwest  Level Estimated
Sun 04:51:00 PM 39.1166 123.6179 210° Southwest  Level Estimated
Sun 04:52:00 PM 39.0062 123.5367 210° Southwest  Level Estimated
Sun 04:53:00 PM 38.8957 123.4558 210° Southwest  Level Estimated
Sun 04:54:00 PM 38.7852 123.3751 210° Southwest  Level Estimated
Sun 04:55:00 PM 38.6746 123.2947 210° Southwest  Level Estimated
Sun 04:56:00 PM 38.5639 123.2146 210° Southwest  Level Estimated
Sun 04:57:00 PM 38.4532 123.1347 209° Southwest  Level Estimated
Sun 04:58:00 PM 38.3425 123.0550 209° Southwest  Level Estimated
Sun 04:59:00 PM 38.2317 122.9756 209° Southwest  Level Estimated
Sun 05:00:00 PM 38.1208 122.8964 209° Southwest  Level Estimated
Sun 05:01:00 PM 38.0099 122.8174 209° Southwest  Level Estimated
Sun 05:02:00 PM 37.8989 122.7387 209° Southwest  Level Estimated
Sun 05:03:00 PM 37.7879 122.6603 209° Southwest  Level Estimated
Sun 05:04:00 PM 37.6768 122.5820 209° Southwest  Level Estimated
Sun 05:05:00 PM 37.5657 122.5040 209° Southwest  Level Estimated
Sun 05:06:00 PM 37.4546 122.4263 209° Southwest  Level Estimated
Sun 05:07:00 PM 37.3433 122.3487 209° Southwest  Level Estimated
Sun 05:08:00 PM 37.2321 122.2714 209° Southwest  Level Estimated
Sun 05:09:00 PM 37.1207 122.1944 209° Southwest  Level Estimated
Sun 05:10:00 PM 37.0094 122.1175 209° Southwest  Level Estimated
Sun 05:11:00 PM 36.8979 122.0409 209° Southwest  Level Estimated
Sun 05:12:00 PM 36.7865 121.9645 209° Southwest  Level Estimated
Sun 05:13:00 PM 36.6749 121.8883 209° Southwest  Level Estimated
Sun 05:14:00 PM 36.5634 121.8123 209° Southwest  Level Estimated
Sun 05:15:00 PM 36.4518 121.7366 209° Southwest  Level Estimated
Sun 05:16:00 PM 36.3401 121.6611 209° Southwest  Level Estimated
Sun 05:17:00 PM 36.2284 121.5858 209° Southwest  Level Estimated
Sun 05:18:00 PM 36.1166 121.5107 208° Southwest  Level Estimated
Sun 05:19:00 PM 36.0048 121.4358 208° Southwest  Level Estimated
Sun 05:20:00 PM 35.8930 121.3611 208° Southwest  Level Estimated
Sun 05:21:00 PM 35.7811 121.2867 208° Southwest  Level Estimated
Sun 05:22:00 PM 35.6691 121.2124 208° Southwest  Level Estimated
Sun 05:23:00 PM 35.5571 121.1384 208° Southwest  Level Estimated
Sun 05:24:00 PM 35.4451 121.0646 208° Southwest  Level Estimated
Sun 05:25:00 PM 35.3330 120.9910 208° Southwest  Level Estimated
Sun 05:26:00 PM 35.2209 120.9175 208° Southwest  Level Estimated
Sun 05:27:00 PM 35.1087 120.8443 208° Southwest  Level Estimated
Sun 05:28:00 PM 34.9965 120.7713 208° Southwest  Level Estimated
Sun 05:29:00 PM 34.8843 120.6985 208° Southwest  Level Estimated
Sun 05:30:00 PM 34.7720 120.6258 208° Southwest  Level Estimated
Sun 05:31:00 PM 34.6596 120.5534 208° Southwest  Level Estimated
Sun 05:32:00 PM 34.5472 120.4812 208° Southwest  Level Estimated
Sun 05:33:00 PM 34.4348 120.4092 208° Southwest  Level Estimated
Sun 05:34:00 PM 34.3223 120.3373 208° Southwest  Level Estimated
Sun 05:35:00 PM 34.2098 120.2657 208° Southwest  Level Estimated
Sun 05:36:00 PM 34.0973 120.1942 208° Southwest  Level Estimated
Sun 05:37:00 PM 33.9847 120.1230 208° Southwest  Level Estimated
Sun 05:38:00 PM 33.8720 120.0519 208° Southwest  Level Estimated
Sun 05:39:00 PM 33.7594 119.9810 208° Southwest  Level Estimated
Sun 05:40:00 PM 33.6466 119.9103 208° Southwest  Level Estimated
Sun 05:41:00 PM 33.5339 119.8398 208° Southwest  Level Estimated
Sun 05:42:00 PM 33.4211 119.7694 207° Southwest  Level Estimated
Sun 05:43:00 PM 33.3083 119.6993 207° Southwest  Level Estimated
Sun 05:44:00 PM 33.1954 119.6293 207° Southwest  Level Estimated
Sun 05:45:00 PM 33.0825 119.5595 207° Southwest  Level Estimated
Sun 05:46:00 PM 32.9695 119.4899 207° Southwest  Level Estimated
Sun 05:47:00 PM 32.8565 119.4205 207° Southwest  Level Estimated
Sun 05:48:00 PM 32.7435 119.3512 207° Southwest  Level Estimated
Sun 05:49:00 PM 32.6304 119.2822 207° Southwest  Level Estimated
Sun 05:50:00 PM 32.5173 119.2133 207° Southwest  Level Estimated
Sun 05:51:00 PM 32.4042 119.1445 207° Southwest  Level Estimated
Sun 05:52:00 PM 32.2910 119.0760 207° Southwest  Level Estimated
Sun 05:53:00 PM 32.1778 119.0076 207° Southwest  Level Estimated
Sun 05:54:00 PM 32.0645 118.9394 207° Southwest  Level Estimated
Sun 05:55:00 PM 31.9512 118.8713 207° Southwest  Level Estimated
Sun 05:56:00 PM 31.8379 118.8034 207° Southwest  Level Estimated
Sun 05:57:00 PM 31.7245 118.7357 207° Southwest  Level Estimated
Sun 05:58:00 PM 31.6112 118.6682 207° Southwest  Level Estimated
Sun 05:59:00 PM 31.4977 118.6008 207° Southwest  Level Estimated
Sun 06:00:00 PM 31.3842 118.5335 207° Southwest  Level Estimated
Sun 06:01:00 PM 31.2707 118.4665 207° Southwest  Level Estimated
Sun 06:02:00 PM 31.1572 118.3996 207° Southwest  Level Estimated
Sun 06:03:00 PM 31.0436 118.3328 207° Southwest  Level Estimated
Sun 06:04:00 PM 30.9300 118.2663 207° Southwest  Level Estimated
Sun 06:05:00 PM 30.8164 118.1998 207° Southwest  Level Estimated
Sun 06:06:00 PM 30.7027 118.1336 207° Southwest  Level Estimated
Sun 06:07:00 PM 30.5890 118.0675 207° Southwest  Level Estimated
Sun 06:08:00 PM 30.4753 118.0015 207° Southwest  Level Estimated
Sun 06:09:00 PM 30.3615 117.9357 207° Southwest  Level Estimated
Sun 06:10:00 PM 30.2477 117.8701 206° Southwest  Level Estimated
Sun 06:11:00 PM 30.1338 117.8046 206° Southwest  Level Estimated
Sun 06:12:00 PM 30.0200 117.7392 206° Southwest  Level Estimated
Sun 06:13:00 PM 29.9060 117.6740 206° Southwest  Level Estimated
Sun 06:14:00 PM 29.7921 117.6090 206° Southwest  Level Estimated
Sun 06:15:00 PM 29.6781 117.5441 206° Southwest  Level Estimated
Sun 06:16:00 PM 29.5641 117.4793 206° Southwest  Level Estimated
Sun 06:17:00 PM 29.4501 117.4147 206° Southwest  Level Estimated
Sun 06:18:00 PM 29.3361 117.3503 206° Southwest  Level Estimated
Sun 06:19:00 PM 29.2220 117.2859 206° Southwest  Level Estimated
Sun 06:20:00 PM 29.1078 117.2218 206° Southwest  Level Estimated
Sun 06:21:00 PM 28.9937 117.1578 206° Southwest  Level Estimated
Sun 06:22:00 PM 28.8795 117.0939 206° Southwest  Level Estimated
Sun 06:23:00 PM 28.7653 117.0301 206° Southwest  Level Estimated
Sun 06:24:00 PM 28.6510 116.9665 206° Southwest  Level Estimated
Sun 06:25:00 PM 28.5368 116.9030 206° Southwest  Level Estimated
Sun 06:26:00 PM 28.4224 116.8397 206° Southwest  Level Estimated
Sun 06:27:00 PM 28.3081 116.7765 206° Southwest  Level Estimated
Sun 06:28:00 PM 28.1938 116.7134 206° Southwest  Level Estimated
Sun 06:29:00 PM 28.0794 116.6505 206° Southwest  Level Estimated
Sun 06:30:00 PM 27.9649 116.5877 206° Southwest  Level Estimated
Sun 06:31:00 PM 27.8505 116.5251 206° Southwest  Level Estimated
Sun 06:32:00 PM 27.7360 116.4625 206° Southwest  Level Estimated
Sun 06:33:00 PM 27.6215 116.4001 206° Southwest  Level Estimated
Sun 06:34:00 PM 27.5070 116.3379 206° Southwest  Level Estimated
Sun 06:35:00 PM 27.3924 116.2757 206° Southwest  Level Estimated
Sun 06:36:00 PM 27.2778 116.2137 206° Southwest  Level Estimated
Sun 06:37:00 PM 27.1632 116.1518 206° Southwest  Level Estimated
Sun 06:38:00 PM 27.0486 116.0901 206° Southwest  Level Estimated
Sun 06:39:00 PM 26.9339 116.0285 206° Southwest  Level Estimated
Sun 06:40:00 PM 26.8192 115.9670 206° Southwest  Level Estimated
Sun 06:41:00 PM 26.7045 115.9056 206° Southwest  Level Estimated
Sun 06:42:00 PM 26.5897 115.8443 206° Southwest  Level Estimated
Sun 06:43:00 PM 26.4750 115.7832 205° Southwest  Level Estimated
Sun 06:44:00 PM 26.3602 115.7222 205° Southwest  Level Estimated
Sun 06:45:00 PM 26.2453 115.6613 205° Southwest  Level Estimated
Sun 06:46:00 PM 26.1305 115.6005 205° Southwest  Level Estimated
Sun 06:47:00 PM 26.0156 115.5399 205° Southwest  Level Estimated
Sun 06:48:00 PM 25.9007 115.4793 205° Southwest  Level Estimated
Sun 06:49:00 PM 25.7858 115.4189 205° Southwest  Level Estimated
Sun 06:50:00 PM 25.6708 115.3587 205° Southwest  Level Estimated
Sun 06:51:00 PM 25.5558 115.2985 205° Southwest  Level Estimated
Sun 06:52:00 PM 25.4408 115.2384 205° Southwest  Level Estimated
Sun 06:53:00 PM 25.3258 115.1785 205° Southwest  Level Estimated
Sun 06:54:00 PM 25.2108 115.1186 205° Southwest  Level Estimated
Sun 06:55:00 PM 25.0957 115.0589 205° Southwest  Level Estimated
Sun 06:56:00 PM 24.9806 114.9993 205° Southwest  Level Estimated
Sun 06:57:00 PM 24.8655 114.9398 205° Southwest  Level Estimated
Sun 06:58:00 PM 24.7503 114.8804 205° Southwest  Level Estimated
Sun 06:59:00 PM 24.6351 114.8211 205° Southwest  Level Estimated
Sun 07:00:00 PM 24.5200 114.7620 205° Southwest  Level Estimated
Sun 07:01:00 PM 24.4047 114.7029 205° Southwest  Level Estimated
Sun 07:02:00 PM 24.2895 114.6439 205° Southwest  Level Estimated
Sun 07:03:00 PM 24.1742 114.5851 205° Southwest  Level Estimated
Sun 07:04:00 PM 24.0590 114.5264 205° Southwest  Level Estimated
Sun 07:05:00 PM 23.9436 114.4677 205° Southwest  Level Estimated
Sun 07:06:00 PM 23.8283 114.4092 205° Southwest  Level Estimated
Sun 07:07:00 PM 23.7130 114.3508 205° Southwest  Level Estimated
Sun 07:08:00 PM 23.5976 114.2924 205° Southwest  Level Estimated
Sun 07:09:00 PM 23.4822 114.2342 205° Southwest  Level Estimated
Sun 07:10:00 PM 23.3668 114.1761 205° Southwest  Level Estimated
Sun 07:11:00 PM 23.2514 114.1181 205° Southwest  Level Estimated
Sun 07:12:00 PM 23.1359 114.0602 205° Southwest  Level Estimated
Sun 07:13:00 PM 23.0204 114.0024 205° Southwest  Level Estimated
Sun 07:14:00 PM 22.9049 113.9446 205° Southwest  Level Estimated
Sun 07:15:00 PM 22.7894 113.8870 205° Southwest  Level Estimated
Sun 07:16:00 PM 22.6738 113.8295 205° Southwest  Level Estimated
Sun 07:17:00 PM 22.6395 113.8124 205° Southwest  Level Estimated
Sun 07:18:00 PM 22.6395 113.8124 North  Level Estimated
Sun 07:19:00 PM 22.6395 113.8124 North  Level Estimated
Sun 07:20:00 PM 22.6395 113.8124 North  Level Estimated
Sun 07:21:00 PM 22.6395 113.8124 North  Level Estimated
Sun 07:22:00 PM 22.6395 113.8124 North  Level Estimated
Sun 07:23:00 PM 22.6395 113.8124 North  Level Estimated
Sun 07:24:00 PM 22.6395 113.8124 North  Level Estimated
Sun 07:25:00 PM 22.6395 113.8124 North  Level Estimated
Sun 07:26:00 PM 22.6395 113.8124 North  Level Estimated
Sun 07:27:00 PM 22.6395 113.8124 North  Level Estimated
Sun 07:28:00 PM 22.6395 113.8124 North  Level Estimated
Sun 07:29:00 PM 22.6395 113.8124 North  Level Estimated
Sun 07:30:00 PM 22.6395 113.8124 North  Level Estimated
Sun 07:31:00 PM 22.6395 113.8124 North  Level Estimated
Sun 07:32:00 PM 22.6395 113.8124 North  Level Estimated
Sun 07:33:00 PM 22.6395 113.8124 North  Level Estimated
Sun 07:34:00 PM 22.6395 113.8124 North  Level Estimated
Sun 07:35:00 PM 22.6395 113.8124 North  Level Estimated

Login

Don't have an account? Register now (free) for customized features, flight alerts, and more!